Tucson, AZ

2:07 AM MST on September 25, 2016 (GMT -0700)
Saguaro Hills Estates | | Change Station

Elev 2765 ft 32.30 °N, 110.76 °W | Updated 2 seconds ago

Clear
Clear
54.9 °F
Feels Like 54.9 °F
N
0.0
Wind Variable Wind from East
Gusts 0.0 mph

Today
High -- | Low -- °F
--% Chance of Precip.
Yesterday
High -- | Low -- °F
Precip. -- in
Pressure 29.94 in
Visibility 10.0 miles
Clouds Clear
Dew Point 34 °F
Humidity 46%
Rainfall 0.00 in
Snow Depth Not available.
6:13 AM 6:14 PM
Waning Crescent, 29% visible
METAR KDMA 250858Z AUTO 14004KT 10SM CLR 15/M01 A3003 RMK AO2 SLP136 T01461013 55001 $
Pressure 29.94 in
Visibility 10.0 miles
Clouds Clear
Dew Point 34 °F
Humidity 46%
Rainfall 0.00 in
Snow Depth Not available.
6:13 AM 6:14 PM
Waning Crescent, 29% visible
METAR KDMA 250858Z AUTO 14004KT 10SM CLR 15/M01 A3003 RMK AO2 SLP136 T01461013 55001 $

10-Day Weather Forecast

Almanac

Astronomy

Sep. 25, 2016 Rise Set
Actual Time
Civil Twilight
Nautical Twilight
Astronomical Twilight
Moon
Length of Visible Light
Length of Day
Tomorrow will be .
, % of the Moon is Illuminated

Today's Extremes

State Highs State Lows

Community

WunderPhotos

Upload Photos

1,941,554 photos uploaded!

WunderBlog® & News

Nearby

Air Quality

  Air Quality AQ Index Pollutant
Not available.

Snow Depth

Station Depth Elevation

Earthquake Activity

City Distance Mag. Time & Date
Minimum magnitude displayed is 2.5.

Coastal Water Temperatures

Place Temperature

Stations

Nearby Weather Stations

Station Location Temp. Windchill Dew Point Humidity Wind Precip. Elev Updated Type
                   

Watches & Warnings

There are currently no watches in effect.